sensor_id;sensor_type;location;lat;lon;timestamp;P1;durP1;ratioP1;P2;durP2;ratioP2
75520;SDS011;64102;48.628;9.002;2023-10-09T00:00:11;12.70;;;0.95;;
75520;SDS011;64102;48.628;9.002;2023-10-09T00:03:04;9.98;;;0.80;;
75520;SDS011;64102;48.628;9.002;2023-10-09T00:05:31;13.88;;;0.95;;
75520;SDS011;64102;48.628;9.002;2023-10-09T00:08:14;13.90;;;1.35;;
75520;SDS011;64102;48.628;9.002;2023-10-09T00:11:00;13.07;;;1.00;;
75520;SDS011;64102;48.628;9.002;2023-10-09T00:13:39;15.68;;;0.75;;
75520;SDS011;64102;48.628;9.002;2023-10-09T00:16:14;10.30;;;1.10;;
75520;SDS011;64102;48.628;9.002;2023-10-09T00:18:58;14.48;;;0.85;;
75520;SDS011;64102;48.628;9.002;2023-10-09T00:21:37;10.68;;;0.80;;
75520;SDS011;64102;48.628;9.002;2023-10-09T00:24:03;15.07;;;1.05;;
75520;SDS011;64102;48.628;9.002;2023-10-09T00:26:31;10.95;;;0.70;;
75520;SDS011;64102;48.628;9.002;2023-10-09T00:29:08;11.63;;;1.30;;
75520;SDS011;64102;48.628;9.002;2023-10-09T00:31:40;10.15;;;0.75;;
75520;SDS011;64102;48.628;9.002;2023-10-09T00:34:14;15.27;;;0.98;;
75520;SDS011;64102;48.628;9.002;2023-10-09T00:36:44;12.82;;;1.83;;
75520;SDS011;64102;48.628;9.002;2023-10-09T00:39:16;10.95;;;0.70;;
75520;SDS011;64102;48.628;9.002;2023-10-09T00:41:47;11.35;;;1.00;;
75520;SDS011;64102;48.628;9.002;2023-10-09T00:44:13;11.73;;;1.87;;
75520;SDS011;64102;48.628;9.002;2023-10-09T00:46:39;14.63;;;1.10;;
75520;SDS011;64102;48.628;9.002;2023-10-09T00:49:08;10.50;;;0.50;;
75520;SDS011;64102;48.628;9.002;2023-10-09T00:51:35;12.70;;;1.10;;
75520;SDS011;64102;48.628;9.002;2023-10-09T00:54:08;11.13;;;0.60;;
75520;SDS011;64102;48.628;9.002;2023-10-09T00:56:39;11.88;;;0.88;;
75520;SDS011;64102;48.628;9.002;2023-10-09T00:59:09;13.18;;;1.58;;
75520;SDS011;64102;48.628;9.002;2023-10-09T01:01:42;11.65;;;0.70;;
75520;SDS011;64102;48.628;9.002;2023-10-09T01:06:51;10.98;;;0.65;;
75520;SDS011;64102;48.628;9.002;2023-10-09T01:09:37;9.13;;;1.00;;
75520;SDS011;64102;48.628;9.002;2023-10-09T01:12:04;9.73;;;0.50;;
75520;SDS011;64102;48.628;9.002;2023-10-09T01:14:33;10.50;;;1.05;;
75520;SDS011;64102;48.628;9.002;2023-10-09T01:17:02;15.20;;;0.88;;
75520;SDS011;64102;48.628;9.002;2023-10-09T01:19:35;12.85;;;0.90;;
75520;SDS011;64102;48.628;9.002;2023-10-09T01:22:01;10.35;;;0.70;;
75520;SDS011;64102;48.628;9.002;2023-10-09T01:24:37;10.88;;;0.98;;
75520;SDS011;64102;48.628;9.002;2023-10-09T01:27:04;10.60;;;0.80;;
75520;SDS011;64102;48.628;9.002;2023-10-09T01:29:37;11.75;;;0.77;;
75520;SDS011;64102;48.628;9.002;2023-10-09T01:32:04;11.55;;;0.80;;
75520;SDS011;64102;48.628;9.002;2023-10-09T01:34:30;10.88;;;0.50;;
75520;SDS011;64102;48.628;9.002;2023-10-09T01:37:27;9.13;;;0.65;;
75520;SDS011;64102;48.628;9.002;2023-10-09T01:39:56;9.20;;;1.08;;
75520;SDS011;64102;48.628;9.002;2023-10-09T01:42:45;9.40;;;0.50;;
75520;SDS011;64102;48.628;9.002;2023-10-09T01:45:14;10.20;;;0.77;;
75520;SDS011;64102;48.628;9.002;2023-10-09T01:47:45;10.50;;;0.77;;
75520;SDS011;64102;48.628;9.002;2023-10-09T01:50:16;11.65;;;0.90;;
75520;SDS011;64102;48.628;9.002;2023-10-09T01:52:51;10.93;;;0.60;;
75520;SDS011;64102;48.628;9.002;2023-10-09T01:55:17;8.03;;;0.90;;
75520;SDS011;64102;48.628;9.002;2023-10-09T01:58:04;11.18;;;0.70;;
75520;SDS011;64102;48.628;9.002;2023-10-09T02:00:42;9.60;;;0.60;;
75520;SDS011;64102;48.628;9.002;2023-10-09T02:03:13;11.15;;;0.77;;
75520;SDS011;64102;48.628;9.002;2023-10-09T02:05:48;8.20;;;0.32;;
75520;SDS011;64102;48.628;9.002;2023-10-09T02:08:16;7.80;;;0.80;;
75520;SDS011;64102;48.628;9.002;2023-10-09T02:10:46;9.02;;;0.70;;
75520;SDS011;64102;48.628;9.002;2023-10-09T02:13:13;9.63;;;0.70;;
75520;SDS011;64102;48.628;9.002;2023-10-09T02:15:42;12.02;;;0.70;;
75520;SDS011;64102;48.628;9.002;2023-10-09T02:18:17;9.32;;;0.80;;
75520;SDS011;64102;48.628;9.002;2023-10-09T02:23:28;11.18;;;0.77;;
75520;SDS011;64102;48.628;9.002;2023-10-09T02:26:07;10.68;;;0.65;;
75520;SDS011;64102;48.628;9.002;2023-10-09T02:28:34;11.10;;;1.15;;
75520;SDS011;64102;48.628;9.002;2023-10-09T02:31:00;12.57;;;0.90;;
75520;SDS011;64102;48.628;9.002;2023-10-09T02:33:34;9.70;;;0.60;;
75520;SDS011;64102;48.628;9.002;2023-10-09T02:36:01;11.18;;;0.95;;
75520;SDS011;64102;48.628;9.002;2023-10-09T02:38:30;9.00;;;1.23;;
75520;SDS011;64102;48.628;9.002;2023-10-09T02:41:01;10.02;;;0.85;;
75520;SDS011;64102;48.628;9.002;2023-10-09T02:43:45;12.48;;;0.50;;
75520;SDS011;64102;48.628;9.002;2023-10-09T02:46:20;9.32;;;0.52;;
75520;SDS011;64102;48.628;9.002;2023-10-09T02:48:46;9.98;;;0.57;;
75520;SDS011;64102;48.628;9.002;2023-10-09T02:51:22;12.32;;;1.08;;
75520;SDS011;64102;48.628;9.002;2023-10-09T02:53:51;7.53;;;0.40;;
75520;SDS011;64102;48.628;9.002;2023-10-09T02:56:17;10.38;;;0.38;;
75520;SDS011;64102;48.628;9.002;2023-10-09T02:58:49;10.38;;;0.73;;
75520;SDS011;64102;48.628;9.002;2023-10-09T03:01:17;8.63;;;0.65;;
75520;SDS011;64102;48.628;9.002;2023-10-09T03:03:42;14.02;;;0.80;;
75520;SDS011;64102;48.628;9.002;2023-10-09T03:06:15;10.07;;;1.67;;
75520;SDS011;64102;48.628;9.002;2023-10-09T03:08:53;12.05;;;0.50;;
75520;SDS011;64102;48.628;9.002;2023-10-09T03:11:19;11.20;;;1.52;;
75520;SDS011;64102;48.628;9.002;2023-10-09T03:13:44;7.50;;;0.50;;
75520;SDS011;64102;48.628;9.002;2023-10-09T03:16:13;9.45;;;0.60;;
75520;SDS011;64102;48.628;9.002;2023-10-09T03:18:53;10.10;;;0.68;;
75520;SDS011;64102;48.628;9.002;2023-10-09T03:21:21;13.13;;;1.58;;
75520;SDS011;64102;48.628;9.002;2023-10-09T03:23:47;8.70;;;0.63;;
75520;SDS011;64102;48.628;9.002;2023-10-09T03:26:15;9.48;;;0.68;;
75520;SDS011;64102;48.628;9.002;2023-10-09T03:28:47;10.50;;;0.75;;
75520;SDS011;64102;48.628;9.002;2023-10-09T03:31:13;10.25;;;0.70;;
75520;SDS011;64102;48.628;9.002;2023-10-09T03:33:39;11.20;;;0.60;;
75520;SDS011;64102;48.628;9.002;2023-10-09T03:36:06;13.18;;;0.60;;
75520;SDS011;64102;48.628;9.002;2023-10-09T03:38:34;12.73;;;1.08;;
75520;SDS011;64102;48.628;9.002;2023-10-09T03:41:03;11.82;;;1.25;;
75520;SDS011;64102;48.628;9.002;2023-10-09T03:43:35;8.63;;;0.70;;
75520;SDS011;64102;48.628;9.002;2023-10-09T03:46:10;10.43;;;0.95;;
75520;SDS011;64102;48.628;9.002;2023-10-09T03:48:57;11.23;;;0.90;;
75520;SDS011;64102;48.628;9.002;2023-10-09T03:51:25;8.38;;;0.70;;
75520;SDS011;64102;48.628;9.002;2023-10-09T03:53:51;9.90;;;1.33;;
75520;SDS011;64102;48.628;9.002;2023-10-09T03:56:20;7.28;;;0.50;;
75520;SDS011;64102;48.628;9.002;2023-10-09T03:58:48;9.73;;;0.55;;
75520;SDS011;64102;48.628;9.002;2023-10-09T04:01:18;8.77;;;0.80;;
75520;SDS011;64102;48.628;9.002;2023-10-09T04:03:53;10.02;;;1.02;;
75520;SDS011;64102;48.628;9.002;2023-10-09T04:06:25;9.02;;;0.82;;
75520;SDS011;64102;48.628;9.002;2023-10-09T04:08:55;11.10;;;0.60;;
75520;SDS011;64102;48.628;9.002;2023-10-09T04:11:23;11.10;;;1.17;;
75520;SDS011;64102;48.628;9.002;2023-10-09T04:13:49;10.48;;;0.82;;
75520;SDS011;64102;48.628;9.002;2023-10-09T04:16:17;11.48;;;0.77;;
75520;SDS011;64102;48.628;9.002;2023-10-09T04:18:57;9.15;;;0.60;;
75520;SDS011;64102;48.628;9.002;2023-10-09T04:21:23;13.07;;;1.10;;
75520;SDS011;64102;48.628;9.002;2023-10-09T04:24:05;10.85;;;0.52;;
75520;SDS011;64102;48.628;9.002;2023-10-09T04:26:38;7.65;;;0.50;;
75520;SDS011;64102;48.628;9.002;2023-10-09T04:29:10;10.75;;;0.70;;
75520;SDS011;64102;48.628;9.002;2023-10-09T04:31:44;11.77;;;1.00;;
75520;SDS011;64102;48.628;9.002;2023-10-09T04:34:16;8.75;;;0.73;;
75520;SDS011;64102;48.628;9.002;2023-10-09T04:36:47;8.55;;;0.77;;
75520;SDS011;64102;48.628;9.002;2023-10-09T04:39:21;12.32;;;1.02;;
75520;SDS011;64102;48.628;9.002;2023-10-09T04:41:56;10.32;;;0.40;;
75520;SDS011;64102;48.628;9.002;2023-10-09T04:44:41;10.35;;;0.85;;
75520;SDS011;64102;48.628;9.002;2023-10-09T04:47:34;9.18;;;1.02;;
75520;SDS011;64102;48.628;9.002;2023-10-09T04:50:07;10.35;;;1.05;;
75520;SDS011;64102;48.628;9.002;2023-10-09T04:52:36;12.20;;;1.15;;
75520;SDS011;64102;48.628;9.002;2023-10-09T04:55:02;13.80;;;1.10;;
75520;SDS011;64102;48.628;9.002;2023-10-09T04:57:34;9.95;;;1.02;;
75520;SDS011;64102;48.628;9.002;2023-10-09T05:00:07;10.93;;;0.57;;
75520;SDS011;64102;48.628;9.002;2023-10-09T05:05:21;7.80;;;0.95;;
75520;SDS011;64102;48.628;9.002;2023-10-09T05:08:06;13.93;;;1.38;;
75520;SDS011;64102;48.628;9.002;2023-10-09T05:10:47;10.77;;;0.80;;
75520;SDS011;64102;48.628;9.002;2023-10-09T05:13:26;13.48;;;0.70;;
75520;SDS011;64102;48.628;9.002;2023-10-09T05:16:06;8.23;;;0.68;;
75520;SDS011;64102;48.628;9.002;2023-10-09T05:18:52;12.75;;;1.15;;
75520;SDS011;64102;48.628;9.002;2023-10-09T05:23:57;9.13;;;1.00;;
75520;SDS011;64102;48.628;9.002;2023-10-09T05:26:47;8.45;;;0.63;;
75520;SDS011;64102;48.628;9.002;2023-10-09T05:32:06;11.57;;;1.27;;
75520;SDS011;64102;48.628;9.002;2023-10-09T05:34:38;11.48;;;1.05;;
75520;SDS011;64102;48.628;9.002;2023-10-09T05:37:22;11.65;;;0.73;;
75520;SDS011;64102;48.628;9.002;2023-10-09T05:39:54;10.52;;;0.80;;
75520;SDS011;64102;48.628;9.002;2023-10-09T05:42:43;11.68;;;0.80;;
75520;SDS011;64102;48.628;9.002;2023-10-09T05:45:16;8.75;;;0.65;;
75520;SDS011;64102;48.628;9.002;2023-10-09T05:47:52;12.15;;;1.25;;
75520;SDS011;64102;48.628;9.002;2023-10-09T05:50:19;11.68;;;1.13;;
75520;SDS011;64102;48.628;9.002;2023-10-09T05:52:45;8.73;;;0.80;;
75520;SDS011;64102;48.628;9.002;2023-10-09T05:55:16;8.23;;;0.50;;
75520;SDS011;64102;48.628;9.002;2023-10-09T05:58:00;11.27;;;0.75;;
75520;SDS011;64102;48.628;9.002;2023-10-09T06:00:44;16.33;;;1.30;;
75520;SDS011;64102;48.628;9.002;2023-10-09T06:03:28;11.40;;;1.30;;
75520;SDS011;64102;48.628;9.002;2023-10-09T06:06:13;8.82;;;1.05;;
75520;SDS011;64102;48.628;9.002;2023-10-09T06:08:58;9.80;;;1.00;;
75520;SDS011;64102;48.628;9.002;2023-10-09T06:11:46;10.00;;;1.08;;
75520;SDS011;64102;48.628;9.002;2023-10-09T06:14:19;8.68;;;0.88;;
75520;SDS011;64102;48.628;9.002;2023-10-09T06:16:55;9.95;;;0.90;;
75520;SDS011;64102;48.628;9.002;2023-10-09T06:19:22;11.48;;;1.10;;
75520;SDS011;64102;48.628;9.002;2023-10-09T06:21:48;13.10;;;0.60;;
75520;SDS011;64102;48.628;9.002;2023-10-09T06:24:17;12.05;;;1.17;;
75520;SDS011;64102;48.628;9.002;2023-10-09T06:26:48;7.70;;;0.75;;
75520;SDS011;64102;48.628;9.002;2023-10-09T06:29:36;12.15;;;0.90;;
75520;SDS011;64102;48.628;9.002;2023-10-09T06:32:03;13.07;;;0.85;;
75520;SDS011;64102;48.628;9.002;2023-10-09T06:34:46;14.40;;;1.25;;
75520;SDS011;64102;48.628;9.002;2023-10-09T06:37:22;11.85;;;0.70;;
75520;SDS011;64102;48.628;9.002;2023-10-09T06:39:48;9.45;;;0.80;;
75520;SDS011;64102;48.628;9.002;2023-10-09T06:42:26;9.57;;;0.82;;
75520;SDS011;64102;48.628;9.002;2023-10-09T06:47:51;13.13;;;0.90;;
75520;SDS011;64102;48.628;9.002;2023-10-09T06:50:42;8.85;;;0.68;;
75520;SDS011;64102;48.628;9.002;2023-10-09T06:53:21;11.88;;;0.77;;
75520;SDS011;64102;48.628;9.002;2023-10-09T06:55:50;9.75;;;0.57;;
75520;SDS011;64102;48.628;9.002;2023-10-09T06:58:30;8.98;;;0.70;;
75520;SDS011;64102;48.628;9.002;2023-10-09T07:01:06;10.52;;;0.50;;
75520;SDS011;64102;48.628;9.002;2023-10-09T07:03:45;12.00;;;0.98;;
75520;SDS011;64102;48.628;9.002;2023-10-09T07:06:24;7.15;;;0.65;;
75520;SDS011;64102;48.628;9.002;2023-10-09T07:09:11;8.10;;;1.15;;
75520;SDS011;64102;48.628;9.002;2023-10-09T07:11:38;12.05;;;1.10;;
75520;SDS011;64102;48.628;9.002;2023-10-09T07:14:04;9.05;;;0.68;;
75520;SDS011;64102;48.628;9.002;2023-10-09T07:16:31;11.20;;;0.93;;
75520;SDS011;64102;48.628;9.002;2023-10-09T07:19:22;10.05;;;1.40;;
75520;SDS011;64102;48.628;9.002;2023-10-09T07:22:02;12.23;;;1.10;;
75520;SDS011;64102;48.628;9.002;2023-10-09T07:24:32;8.75;;;0.68;;
75520;SDS011;64102;48.628;9.002;2023-10-09T07:27:08;9.13;;;1.00;;
75520;SDS011;64102;48.628;9.002;2023-10-09T07:29:34;10.38;;;0.68;;
75520;SDS011;64102;48.628;9.002;2023-10-09T07:32:12;12.45;;;0.68;;
75520;SDS011;64102;48.628;9.002;2023-10-09T07:34:47;9.73;;;0.70;;
75520;SDS011;64102;48.628;9.002;2023-10-09T07:37:21;9.43;;;0.50;;
75520;SDS011;64102;48.628;9.002;2023-10-09T07:39:51;9.65;;;0.68;;
75520;SDS011;64102;48.628;9.002;2023-10-09T07:42:23;12.75;;;0.60;;
75520;SDS011;64102;48.628;9.002;2023-10-09T07:45:08;8.52;;;0.40;;
75520;SDS011;64102;48.628;9.002;2023-10-09T07:47:46;12.80;;;0.63;;
75520;SDS011;64102;48.628;9.002;2023-10-09T07:50:26;10.70;;;0.70;;
75520;SDS011;64102;48.628;9.002;2023-10-09T07:53:12;13.43;;;1.42;;
75520;SDS011;64102;48.628;9.002;2023-10-09T07:55:43;13.30;;;1.23;;
75520;SDS011;64102;48.628;9.002;2023-10-09T07:58:19;10.68;;;0.93;;
75520;SDS011;64102;48.628;9.002;2023-10-09T08:00:50;13.73;;;1.35;;
75520;SDS011;64102;48.628;9.002;2023-10-09T08:03:41;9.27;;;0.65;;
75520;SDS011;64102;48.628;9.002;2023-10-09T08:06:22;6.97;;;0.50;;
75520;SDS011;64102;48.628;9.002;2023-10-09T08:09:09;11.38;;;0.63;;
75520;SDS011;64102;48.628;9.002;2023-10-09T08:11:41;10.38;;;0.85;;
75520;SDS011;64102;48.628;9.002;2023-10-09T08:14:10;11.57;;;0.85;;
75520;SDS011;64102;48.628;9.002;2023-10-09T08:17:15;11.48;;;0.50;;
75520;SDS011;64102;48.628;9.002;2023-10-09T08:19:41;10.43;;;0.50;;
75520;SDS011;64102;48.628;9.002;2023-10-09T08:22:37;8.65;;;0.55;;
75520;SDS011;64102;48.628;9.002;2023-10-09T08:25:08;11.48;;;0.82;;
75520;SDS011;64102;48.628;9.002;2023-10-09T08:27:41;8.57;;;1.38;;
75520;SDS011;64102;48.628;9.002;2023-10-09T08:30:19;9.32;;;0.77;;
75520;SDS011;64102;48.628;9.002;2023-10-09T08:32:51;11.48;;;0.65;;
75520;SDS011;64102;48.628;9.002;2023-10-09T08:35:38;7.95;;;0.68;;
75520;SDS011;64102;48.628;9.002;2023-10-09T08:38:12;7.97;;;0.70;;
75520;SDS011;64102;48.628;9.002;2023-10-09T08:40:41;8.07;;;0.73;;
75520;SDS011;64102;48.628;9.002;2023-10-09T08:43:29;10.15;;;0.93;;
75520;SDS011;64102;48.628;9.002;2023-10-09T08:45:56;7.50;;;0.95;;
75520;SDS011;64102;48.628;9.002;2023-10-09T08:48:28;12.07;;;0.70;;
75520;SDS011;64102;48.628;9.002;2023-10-09T08:50:54;13.13;;;0.80;;
75520;SDS011;64102;48.628;9.002;2023-10-09T08:53:21;8.32;;;0.60;;
75520;SDS011;64102;48.628;9.002;2023-10-09T08:55:49;10.25;;;0.50;;
75520;SDS011;64102;48.628;9.002;2023-10-09T08:58:16;11.15;;;0.93;;
75520;SDS011;64102;48.628;9.002;2023-10-09T09:01:01;14.02;;;0.70;;
75520;SDS011;64102;48.628;9.002;2023-10-09T09:03:26;9.43;;;0.60;;
75520;SDS011;64102;48.628;9.002;2023-10-09T09:06:02;12.77;;;0.95;;
75520;SDS011;64102;48.628;9.002;2023-10-09T09:08:28;12.77;;;1.38;;
75520;SDS011;64102;48.628;9.002;2023-10-09T09:10:58;12.88;;;0.85;;
75520;SDS011;64102;48.628;9.002;2023-10-09T09:13:36;11.80;;;1.25;;
75520;SDS011;64102;48.628;9.002;2023-10-09T09:16:02;9.27;;;0.65;;
75520;SDS011;64102;48.628;9.002;2023-10-09T09:18:27;10.35;;;0.90;;
75520;SDS011;64102;48.628;9.002;2023-10-09T09:21:01;8.85;;;0.98;;
75520;SDS011;64102;48.628;9.002;2023-10-09T09:23:52;9.55;;;0.50;;
75520;SDS011;64102;48.628;9.002;2023-10-09T09:26:35;8.05;;;1.15;;
75520;SDS011;64102;48.628;9.002;2023-10-09T09:29:03;8.32;;;0.50;;
75520;SDS011;64102;48.628;9.002;2023-10-09T09:31:35;9.07;;;0.52;;
75520;SDS011;64102;48.628;9.002;2023-10-09T09:34:03;8.23;;;0.70;;
75520;SDS011;64102;48.628;9.002;2023-10-09T09:36:37;10.68;;;0.50;;
75520;SDS011;64102;48.628;9.002;2023-10-09T09:41:44;10.60;;;0.50;;
75520;SDS011;64102;48.628;9.002;2023-10-09T09:44:10;8.82;;;0.60;;
75520;SDS011;64102;48.628;9.002;2023-10-09T09:46:42;8.93;;;0.82;;
75520;SDS011;64102;48.628;9.002;2023-10-09T09:49:09;12.05;;;1.25;;
75520;SDS011;64102;48.628;9.002;2023-10-09T09:51:46;13.13;;;0.90;;
75520;SDS011;64102;48.628;9.002;2023-10-09T09:54:12;9.57;;;1.27;;
75520;SDS011;64102;48.628;9.002;2023-10-09T09:56:43;10.52;;;0.77;;
75520;SDS011;64102;48.628;9.002;2023-10-09T09:59:15;11.35;;;0.88;;
75520;SDS011;64102;48.628;9.002;2023-10-09T10:01:46;11.63;;;1.08;;
75520;SDS011;64102;48.628;9.002;2023-10-09T10:04:22;6.85;;;0.50;;
75520;SDS011;64102;48.628;9.002;2023-10-09T10:06:50;9.65;;;1.00;;
75520;SDS011;64102;48.628;9.002;2023-10-09T10:09:36;13.07;;;1.35;;
75520;SDS011;64102;48.628;9.002;2023-10-09T10:12:09;11.98;;;1.00;;
75520;SDS011;64102;48.628;9.002;2023-10-09T10:18:13;15.82;;;0.95;;
75520;SDS011;64102;48.628;9.002;2023-10-09T10:20:32;12.93;;;0.82;;
75520;SDS011;64102;48.628;9.002;2023-10-09T10:23:16;8.03;;;0.70;;
75520;SDS011;64102;48.628;9.002;2023-10-09T10:25:43;14.38;;;1.10;;
75520;SDS011;64102;48.628;9.002;2023-10-09T10:28:24;15.13;;;1.17;;
75520;SDS011;64102;48.628;9.002;2023-10-09T10:31:09;11.07;;;0.90;;
75520;SDS011;64102;48.628;9.002;2023-10-09T10:36:19;10.80;;;0.95;;
75520;SDS011;64102;48.628;9.002;2023-10-09T10:38:55;11.70;;;1.13;;
75520;SDS011;64102;48.628;9.002;2023-10-09T10:41:33;12.57;;;1.40;;
75520;SDS011;64102;48.628;9.002;2023-10-09T10:44:02;14.25;;;1.60;;
75520;SDS011;64102;48.628;9.002;2023-10-09T10:46:47;14.35;;;2.35;;
75520;SDS011;64102;48.628;9.002;2023-10-09T10:49:18;13.50;;;1.23;;
75520;SDS011;64102;48.628;9.002;2023-10-09T10:51:49;13.88;;;1.33;;
75520;SDS011;64102;48.628;9.002;2023-10-09T10:54:23;13.70;;;2.35;;
75520;SDS011;64102;48.628;9.002;2023-10-09T10:56:58;19.42;;;2.25;;
75520;SDS011;64102;48.628;9.002;2023-10-09T10:59:25;17.80;;;2.42;;
75520;SDS011;64102;48.628;9.002;2023-10-09T11:02:01;14.27;;;1.67;;
75520;SDS011;64102;48.628;9.002;2023-10-09T11:04:34;17.52;;;3.47;;
75520;SDS011;64102;48.628;9.002;2023-10-09T11:07:10;13.32;;;1.30;;
75520;SDS011;64102;48.628;9.002;2023-10-09T11:09:51;15.18;;;1.33;;
75520;SDS011;64102;48.628;9.002;2023-10-09T11:12:51;17.85;;;1.50;;
75520;SDS011;64102;48.628;9.002;2023-10-09T11:15:38;15.10;;;1.45;;
75520;SDS011;64102;48.628;9.002;2023-10-09T11:18:12;15.25;;;1.13;;
75520;SDS011;64102;48.628;9.002;2023-10-09T11:20:44;12.23;;;1.60;;
75520;SDS011;64102;48.628;9.002;2023-10-09T11:23:28;14.48;;;2.47;;
75520;SDS011;64102;48.628;9.002;2023-10-09T11:26:04;15.75;;;1.17;;
75520;SDS011;64102;48.628;9.002;2023-10-09T11:28:46;13.77;;;2.17;;
75520;SDS011;64102;48.628;9.002;2023-10-09T11:31:38;14.68;;;1.95;;
75520;SDS011;64102;48.628;9.002;2023-10-09T11:34:03;17.35;;;1.75;;
75520;SDS011;64102;48.628;9.002;2023-10-09T11:39:28;15.83;;;1.90;;
75520;SDS011;64102;48.628;9.002;2023-10-09T11:42:00;17.58;;;1.38;;
75520;SDS011;64102;48.628;9.002;2023-10-09T11:44:39;13.30;;;1.65;;
75520;SDS011;64102;48.628;9.002;2023-10-09T11:47:09;14.48;;;1.65;;
75520;SDS011;64102;48.628;9.002;2023-10-09T11:52:54;12.95;;;1.52;;
75520;SDS011;64102;48.628;9.002;2023-10-09T11:55:44;12.32;;;1.10;;
75520;SDS011;64102;48.628;9.002;2023-10-09T11:58:19;13.73;;;1.38;;
75520;SDS011;64102;48.628;9.002;2023-10-09T12:00:49;14.02;;;0.93;;
75520;SDS011;64102;48.628;9.002;2023-10-09T12:03:30;13.48;;;1.10;;
75520;SDS011;64102;48.628;9.002;2023-10-09T12:06:03;13.65;;;1.33;;
75520;SDS011;64102;48.628;9.002;2023-10-09T12:08:38;15.40;;;1.60;;
75520;SDS011;64102;48.628;9.002;2023-10-09T12:11:06;13.48;;;1.13;;
75520;SDS011;64102;48.628;9.002;2023-10-09T12:13:37;18.33;;;1.13;;
75520;SDS011;64102;48.628;9.002;2023-10-09T12:16:03;15.27;;;1.00;;
75520;SDS011;64102;48.628;9.002;2023-10-09T12:18:33;12.00;;;0.93;;
75520;SDS011;64102;48.628;9.002;2023-10-09T12:20:59;12.55;;;0.90;;
75520;SDS011;64102;48.628;9.002;2023-10-09T12:23:27;12.63;;;0.85;;
75520;SDS011;64102;48.628;9.002;2023-10-09T12:25:53;13.18;;;0.90;;
75520;SDS011;64102;48.628;9.002;2023-10-09T12:28:21;20.33;;;2.55;;
75520;SDS011;64102;48.628;9.002;2023-10-09T12:30:47;14.05;;;1.75;;
75520;SDS011;64102;48.628;9.002;2023-10-09T12:33:15;10.70;;;1.38;;
75520;SDS011;64102;48.628;9.002;2023-10-09T12:35:41;14.23;;;1.30;;
75520;SDS011;64102;48.628;9.002;2023-10-09T12:38:10;14.85;;;1.52;;
75520;SDS011;64102;48.628;9.002;2023-10-09T12:40:37;16.10;;;1.50;;
75520;SDS011;64102;48.628;9.002;2023-10-09T12:43:05;13.40;;;1.10;;
75520;SDS011;64102;48.628;9.002;2023-10-09T12:45:33;12.25;;;0.85;;
75520;SDS011;64102;48.628;9.002;2023-10-09T12:47:59;11.52;;;1.52;;
75520;SDS011;64102;48.628;9.002;2023-10-09T12:50:28;15.52;;;1.27;;
75520;SDS011;64102;48.628;9.002;2023-10-09T12:52:55;13.85;;;2.58;;
75520;SDS011;64102;48.628;9.002;2023-10-09T12:55:21;14.48;;;2.03;;
75520;SDS011;64102;48.628;9.002;2023-10-09T12:57:47;15.68;;;1.90;;
75520;SDS011;64102;48.628;9.002;2023-10-09T13:00:13;14.00;;;2.53;;
75520;SDS011;64102;48.628;9.002;2023-10-09T13:02:50;12.88;;;2.58;;
75520;SDS011;64102;48.628;9.002;2023-10-09T13:05:16;10.43;;;2.40;;
75520;SDS011;64102;48.628;9.002;2023-10-09T13:07:51;12.75;;;2.13;;
75520;SDS011;64102;48.628;9.002;2023-10-09T13:10:16;13.10;;;3.00;;
75520;SDS011;64102;48.628;9.002;2023-10-09T13:12:42;11.57;;;1.80;;
75520;SDS011;64102;48.628;9.002;2023-10-09T13:15:08;12.60;;;1.93;;
75520;SDS011;64102;48.628;9.002;2023-10-09T13:17:37;13.32;;;2.13;;
75520;SDS011;64102;48.628;9.002;2023-10-09T13:20:04;13.63;;;2.40;;
75520;SDS011;64102;48.628;9.002;2023-10-09T13:22:41;12.85;;;1.67;;
75520;SDS011;64102;48.628;9.002;2023-10-09T13:25:10;12.80;;;1.73;;
75520;SDS011;64102;48.628;9.002;2023-10-09T13:27:44;13.52;;;2.70;;
75520;SDS011;64102;48.628;9.002;2023-10-09T13:30:17;11.13;;;2.17;;
75520;SDS011;64102;48.628;9.002;2023-10-09T13:32:47;11.75;;;2.70;;
75520;SDS011;64102;48.628;9.002;2023-10-09T13:35:14;12.82;;;1.75;;
75520;SDS011;64102;48.628;9.002;2023-10-09T13:37:43;10.63;;;1.33;;
75520;SDS011;64102;48.628;9.002;2023-10-09T13:40:16;12.18;;;1.73;;
75520;SDS011;64102;48.628;9.002;2023-10-09T13:42:52;11.55;;;1.20;;
75520;SDS011;64102;48.628;9.002;2023-10-09T13:45:27;11.35;;;1.30;;
75520;SDS011;64102;48.628;9.002;2023-10-09T13:47:54;12.02;;;2.45;;
75520;SDS011;64102;48.628;9.002;2023-10-09T13:50:25;11.63;;;0.95;;
75520;SDS011;64102;48.628;9.002;2023-10-09T13:52:54;13.02;;;1.85;;
75520;SDS011;64102;48.628;9.002;2023-10-09T13:55:21;10.10;;;1.92;;
75520;SDS011;64102;48.628;9.002;2023-10-09T13:57:46;11.18;;;0.95;;
75520;SDS011;64102;48.628;9.002;2023-10-09T14:00:13;11.17;;;2.13;;
75520;SDS011;64102;48.628;9.002;2023-10-09T14:02:42;10.77;;;1.92;;
75520;SDS011;64102;48.628;9.002;2023-10-09T14:05:08;9.48;;;1.90;;
75520;SDS011;64102;48.628;9.002;2023-10-09T14:07:34;12.10;;;1.33;;
75520;SDS011;64102;48.628;9.002;2023-10-09T14:10:00;12.35;;;2.05;;
75520;SDS011;64102;48.628;9.002;2023-10-09T14:12:42;10.52;;;2.47;;
75520;SDS011;64102;48.628;9.002;2023-10-09T14:15:09;11.40;;;2.42;;
75520;SDS011;64102;48.628;9.002;2023-10-09T14:17:42;11.73;;;2.78;;
75520;SDS011;64102;48.628;9.002;2023-10-09T14:20:07;11.00;;;2.20;;
75520;SDS011;64102;48.628;9.002;2023-10-09T14:22:55;12.27;;;3.67;;
75520;SDS011;64102;48.628;9.002;2023-10-09T14:25:21;11.57;;;3.75;;
75520;SDS011;64102;48.628;9.002;2023-10-09T14:27:46;11.30;;;2.63;;
75520;SDS011;64102;48.628;9.002;2023-10-09T14:30:18;11.55;;;2.22;;
75520;SDS011;64102;48.628;9.002;2023-10-09T14:33:03;12.25;;;2.58;;
75520;SDS011;64102;48.628;9.002;2023-10-09T14:35:32;11.88;;;1.98;;
75520;SDS011;64102;48.628;9.002;2023-10-09T14:37:57;10.52;;;2.20;;
75520;SDS011;64102;48.628;9.002;2023-10-09T14:40:26;12.13;;;1.15;;
75520;SDS011;64102;48.628;9.002;2023-10-09T14:42:57;10.45;;;1.52;;
75520;SDS011;64102;48.628;9.002;2023-10-09T14:45:26;12.40;;;2.03;;
75520;SDS011;64102;48.628;9.002;2023-10-09T14:47:52;11.32;;;1.98;;
75520;SDS011;64102;48.628;9.002;2023-10-09T14:50:19;12.85;;;2.08;;
75520;SDS011;64102;48.628;9.002;2023-10-09T14:52:48;17.75;;;2.05;;
75520;SDS011;64102;48.628;9.002;2023-10-09T14:55:15;12.70;;;1.75;;
75520;SDS011;64102;48.628;9.002;2023-10-09T14:57:45;11.65;;;1.15;;
75520;SDS011;64102;48.628;9.002;2023-10-09T15:00:17;12.77;;;1.92;;
75520;SDS011;64102;48.628;9.002;2023-10-09T15:02:51;14.40;;;2.30;;
75520;SDS011;64102;48.628;9.002;2023-10-09T15:05:17;14.77;;;1.90;;
75520;SDS011;64102;48.628;9.002;2023-10-09T15:07:42;15.13;;;1.30;;
75520;SDS011;64102;48.628;9.002;2023-10-09T15:10:08;12.07;;;1.83;;
75520;SDS011;64102;48.628;9.002;2023-10-09T15:12:40;20.00;;;2.35;;
75520;SDS011;64102;48.628;9.002;2023-10-09T15:15:11;11.65;;;1.10;;
75520;SDS011;64102;48.628;9.002;2023-10-09T15:17:42;13.88;;;1.55;;
75520;SDS011;64102;48.628;9.002;2023-10-09T15:20:13;12.52;;;1.90;;
75520;SDS011;64102;48.628;9.002;2023-10-09T15:22:42;11.43;;;1.30;;
75520;SDS011;64102;48.628;9.002;2023-10-09T15:25:08;11.65;;;1.42;;
75520;SDS011;64102;48.628;9.002;2023-10-09T15:27:39;15.70;;;2.03;;
75520;SDS011;64102;48.628;9.002;2023-10-09T15:30:05;9.52;;;1.27;;
75520;SDS011;64102;48.628;9.002;2023-10-09T15:32:33;15.52;;;1.85;;
75520;SDS011;64102;48.628;9.002;2023-10-09T15:35:00;14.18;;;1.83;;
75520;SDS011;64102;48.628;9.002;2023-10-09T15:37:27;14.18;;;1.35;;
75520;SDS011;64102;48.628;9.002;2023-10-09T15:39:52;12.80;;;0.85;;
75520;SDS011;64102;48.628;9.002;2023-10-09T15:42:18;13.80;;;2.07;;